Schedule Details

Flight Number: ASX326
Departure: Gdansk im. Lecha Walesy (EPGD) at 20:00Z
Arrival: Jersey (EGJJ) at 23:26Z
Route: DEXIR T671 VEKON L730 VAVUN Z491 BODLA UZ717 PODUS UL619 VIBIS UZ717 AMALI UM864 ATROS UL980 DLE UZ717 ABAMI T884 AGENIrnT855 BATTY UL608 SOGRI M617 CIV/N0322F250 M617 CMB/N0320F240 R50 CAN

Weather Information
EPGD 180630Z 29002KT 8000 SCT041 M03/M04 Q1026
EGJJ 180620Z 15013KT 4500 BR FEW001 BKN002 06/06 Q1020

Schedule Frequency

Route Map